createdAt,value
2024-04-15T00:01:48.376Z,1.25
2024-04-15T00:04:15.194Z,0.93
2024-04-15T00:06:42.238Z,1.02
2024-04-15T00:09:09.311Z,1.45
2024-04-15T00:11:36.027Z,1.20
2024-04-15T00:14:02.723Z,0.90
2024-04-15T00:16:30.630Z,0.90
2024-04-15T00:18:58.406Z,1.10
2024-04-15T00:21:25.194Z,1.10
2024-04-15T00:23:51.973Z,0.85
2024-04-15T00:26:20.116Z,0.88
2024-04-15T00:28:47.271Z,0.80
2024-04-15T00:31:14.124Z,0.60
2024-04-15T00:33:40.916Z,0.80
2024-04-15T00:36:08.018Z,0.52
2024-04-15T00:38:34.814Z,1.00
2024-04-15T00:41:01.728Z,1.08
2024-04-15T00:43:28.991Z,0.80
2024-04-15T00:45:55.817Z,1.02
2024-04-15T00:48:22.931Z,0.77
2024-04-15T00:50:50.675Z,1.35
2024-04-15T00:53:23.698Z,0.70
2024-04-15T00:55:54.439Z,0.77
2024-04-15T00:58:22.210Z,0.95
2024-04-15T01:00:49.343Z,0.95
2024-04-15T01:03:16.865Z,1.13
2024-04-15T01:05:44.468Z,1.10
2024-04-15T01:08:12.725Z,0.90
2024-04-15T01:10:51.007Z,1.00
2024-04-15T01:13:26.386Z,1.00
2024-04-15T01:15:57.645Z,0.93
2024-04-15T01:18:24.823Z,1.40
2024-04-15T01:20:57.334Z,1.23
2024-04-15T01:23:24.836Z,1.52
2024-04-15T01:25:52.704Z,1.45
2024-04-15T01:28:21.890Z,1.50
2024-04-15T01:30:49.875Z,1.38
2024-04-15T01:33:17.059Z,1.50
2024-04-15T01:35:43.812Z,1.45
2024-04-15T01:38:11.744Z,1.63
2024-04-15T01:40:41.999Z,1.27
2024-04-15T01:43:09.038Z,2.40
2024-04-15T01:45:36.637Z,1.33
2024-04-15T01:48:04.808Z,1.17
2024-04-15T01:50:31.867Z,1.63
2024-04-15T01:53:04.983Z,1.42
2024-04-15T01:55:35.869Z,1.23
2024-04-15T01:58:07.514Z,1.40
2024-04-15T02:00:34.990Z,1.55
2024-04-15T02:03:01.772Z,1.10
2024-04-15T02:05:29.826Z,1.10
2024-04-15T02:07:58.343Z,1.25
2024-04-15T02:10:25.507Z,1.30
2024-04-15T02:12:53.186Z,1.48
2024-04-15T02:15:19.883Z,1.42
2024-04-15T02:17:52.777Z,1.20
2024-04-15T02:20:19.529Z,1.50
2024-04-15T02:22:46.675Z,1.30
2024-04-15T02:25:13.780Z,1.85
2024-04-15T02:27:41.053Z,1.40
2024-04-15T02:30:08.710Z,1.98
2024-04-15T02:32:36.092Z,1.60
2024-04-15T02:35:03.134Z,0.98
2024-04-15T02:37:30.136Z,1.40
2024-04-15T02:39:57.469Z,1.60
2024-04-15T02:42:24.154Z,1.27
2024-04-15T02:44:51.220Z,1.65
2024-04-15T02:47:18.555Z,1.60
2024-04-15T02:49:45.244Z,1.33
2024-04-15T02:52:12.469Z,1.48
2024-04-15T02:54:39.748Z,1.10
2024-04-15T02:57:07.074Z,1.10
2024-04-15T02:59:33.805Z,1.30
2024-04-15T03:02:00.565Z,1.15
2024-04-15T03:04:27.533Z,1.65
2024-04-15T03:06:54.534Z,1.17
2024-04-15T03:09:24.834Z,0.90
2024-04-15T03:11:51.578Z,0.93
2024-04-15T03:14:18.679Z,0.95
2024-04-15T03:16:46.358Z,0.80
2024-04-15T03:19:13.175Z,1.52
2024-04-15T03:21:42.421Z,0.75
2024-04-15T03:24:10.199Z,1.13
2024-04-15T03:26:40.063Z,1.55
2024-04-15T03:29:07.245Z,0.95
2024-04-15T03:31:33.971Z,1.45
2024-04-15T03:34:00.737Z,0.90
2024-04-15T03:36:27.435Z,1.08
2024-04-15T03:38:54.154Z,0.47
2024-04-15T03:41:20.855Z,1.20
2024-04-15T03:43:48.031Z,1.10
2024-04-15T03:46:14.864Z,1.25
2024-04-15T03:48:41.747Z,1.17
2024-04-15T03:51:08.582Z,0.75
2024-04-15T03:53:38.784Z,0.90
2024-04-15T03:56:06.682Z,1.05
2024-04-15T03:58:33.404Z,1.33
2024-04-15T04:01:04.069Z,1.10
2024-04-15T04:03:30.899Z,1.25
2024-04-15T04:06:09.698Z,1.08
2024-04-15T04:08:38.857Z,1.13
2024-04-15T04:11:08.081Z,1.63
2024-04-15T04:13:36.576Z,1.38
2024-04-15T04:16:06.922Z,1.50
2024-04-15T04:18:34.331Z,1.35
2024-04-15T04:21:02.457Z,1.50
2024-04-15T04:23:29.391Z,1.27
2024-04-15T04:26:00.990Z,1.35
2024-04-15T04:28:30.204Z,1.40
2024-04-15T04:31:03.300Z,1.20
2024-04-15T04:33:31.191Z,1.10
2024-04-15T04:35:57.943Z,1.88
2024-04-15T04:38:26.094Z,1.25
2024-04-15T04:41:05.723Z,1.40
2024-04-15T04:43:33.906Z,1.67
2024-04-15T04:46:12.821Z,1.70
2024-04-15T04:48:41.538Z,1.40
2024-04-15T04:51:16.669Z,1.20
2024-04-15T04:53:43.938Z,1.52
2024-04-15T04:56:12.102Z,1.30
2024-04-15T04:58:40.406Z,1.85
2024-04-15T05:01:19.019Z,1.75
2024-04-15T05:04:11.009Z,1.67
2024-04-15T05:06:38.884Z,1.23
2024-04-15T05:09:08.394Z,1.83
2024-04-15T05:11:38.021Z,2.17
2024-04-15T05:14:11.428Z,1.48
2024-04-15T05:16:47.820Z,2.50
2024-04-15T05:19:14.888Z,1.42
2024-04-15T05:21:44.652Z,1.85
2024-04-15T05:24:11.811Z,2.47
2024-04-15T05:26:40.001Z,1.77
2024-04-15T05:29:08.120Z,1.58
2024-04-15T05:31:34.892Z,1.73
2024-04-15T05:34:01.799Z,1.50
2024-04-15T05:36:31.041Z,1.35
2024-04-15T05:38:58.694Z,1.50
2024-04-15T05:41:25.460Z,1.30
2024-04-15T05:43:52.932Z,1.58
2024-04-15T05:46:19.781Z,1.60
2024-04-15T05:48:47.692Z,1.58
2024-04-15T05:51:23.363Z,1.80
2024-04-15T05:53:50.908Z,1.55
2024-04-15T05:56:18.890Z,1.60
2024-04-15T05:58:48.293Z,1.70
2024-04-15T06:01:16.463Z,1.52
2024-04-15T06:03:43.789Z,1.50
2024-04-15T06:06:11.838Z,2.13
2024-04-15T06:08:38.549Z,1.65
2024-04-15T06:11:06.831Z,1.73
2024-04-15T06:13:33.629Z,1.92
2024-04-15T06:16:00.733Z,1.40
2024-04-15T06:18:27.554Z,1.17
2024-04-15T06:20:54.265Z,1.70
2024-04-15T06:23:21.071Z,1.48
2024-04-15T06:25:55.667Z,1.55
2024-04-15T06:28:22.417Z,1.35
2024-04-15T06:30:49.679Z,0.93
2024-04-15T06:33:16.723Z,1.98
2024-04-15T06:35:43.851Z,0.93
2024-04-15T06:38:14.538Z,1.80
2024-04-15T06:40:42.449Z,1.92
2024-04-15T06:43:09.685Z,2.10
2024-04-15T06:45:36.409Z,1.85
2024-04-15T06:48:03.486Z,1.30
2024-04-15T06:50:30.197Z,1.73
2024-04-15T06:52:57.190Z,1.23
2024-04-15T06:55:23.951Z,1.52
2024-04-15T06:57:50.887Z,1.10
2024-04-15T07:00:17.799Z,1.13
2024-04-15T07:02:44.478Z,1.10
2024-04-15T07:05:11.269Z,1.42
2024-04-15T07:07:38.274Z,1.23
2024-04-15T07:10:08.185Z,0.95
2024-04-15T07:12:35.012Z,0.68
2024-04-15T07:15:01.661Z,0.85
2024-04-15T07:17:28.420Z,1.00
2024-04-15T07:19:55.113Z,0.35
2024-04-15T07:22:22.500Z,0.60
2024-04-15T07:24:49.476Z,0.55
2024-04-15T07:27:16.130Z,1.40
2024-04-15T07:29:42.815Z,1.27
2024-04-15T07:32:09.578Z,0.38
2024-04-15T07:34:36.349Z,0.65
2024-04-15T07:37:03.230Z,1.35
2024-04-15T07:39:30.023Z,1.55
2024-04-15T07:41:56.736Z,1.58
2024-04-15T07:44:23.472Z,0.98
2024-04-15T07:46:50.450Z,0.80
2024-04-15T07:49:17.743Z,1.20
2024-04-15T07:51:45.992Z,1.58
2024-04-15T07:54:24.745Z,1.17
2024-04-15T07:56:52.835Z,1.25
2024-04-15T07:59:21.537Z,0.30
2024-04-15T08:01:53.018Z,0.50
2024-04-15T08:04:20.686Z,0.75
2024-04-15T08:06:53.921Z,1.10
2024-04-15T08:09:27.527Z,0.95
2024-04-15T08:11:54.799Z,1.00
2024-04-15T08:14:23.644Z,1.10
2024-04-15T08:16:50.472Z,0.93
2024-04-15T08:19:19.348Z,0.90
2024-04-15T08:21:46.753Z,0.35
2024-04-15T08:24:13.545Z,1.27
2024-04-15T08:26:41.375Z,0.40
2024-04-15T08:29:09.847Z,1.02
2024-04-15T08:31:37.328Z,0.50
2024-04-15T08:34:04.096Z,0.70
2024-04-15T08:36:30.946Z,0.80
2024-04-15T08:38:57.729Z,1.10
2024-04-15T08:41:30.168Z,0.88
2024-04-15T08:44:08.918Z,1.10
2024-04-15T08:46:48.797Z,1.02
2024-04-15T08:49:16.005Z,0.90
2024-04-15T08:51:43.172Z,0.75
2024-04-15T08:54:10.011Z,0.80
2024-04-15T08:56:38.921Z,1.00
2024-04-15T08:59:10.972Z,0.93
2024-04-15T09:01:40.251Z,0.73
2024-04-15T09:04:08.816Z,1.48
2024-04-15T09:06:35.729Z,0.85
2024-04-15T09:09:06.467Z,0.95
2024-04-15T09:11:36.984Z,0.70
2024-04-15T09:14:06.575Z,1.25
2024-04-15T09:16:35.563Z,0.80
2024-04-15T09:19:08.340Z,1.13
2024-04-15T09:21:35.602Z,0.60
2024-04-15T09:24:03.380Z,0.47
2024-04-15T09:26:31.890Z,1.33
2024-04-15T09:28:58.688Z,1.05
2024-04-15T09:31:25.675Z,0.88
2024-04-15T09:33:53.176Z,1.23
2024-04-15T09:36:20.667Z,1.00
2024-04-15T09:38:49.855Z,0.90
2024-04-15T09:43:49.153Z,0.95
2024-04-15T09:46:21.086Z,1.00
2024-04-15T09:48:50.490Z,1.27
2024-04-15T09:51:25.078Z,0.90
2024-04-15T09:53:53.728Z,0.85
2024-04-15T09:56:28.851Z,0.55
2024-04-15T09:59:04.855Z,1.00
2024-04-15T10:01:33.513Z,0.85
2024-04-15T10:04:04.586Z,0.80
2024-04-15T10:06:54.107Z,1.20
2024-04-15T10:09:21.343Z,1.08
2024-04-15T10:11:50.822Z,0.80
2024-04-15T10:14:18.519Z,0.38
2024-04-15T10:16:52.657Z,0.90
2024-04-15T10:19:35.123Z,1.30
2024-04-15T10:22:02.818Z,1.10
2024-04-15T10:24:40.472Z,0.80
2024-04-15T10:27:12.330Z,1.08
2024-04-15T10:29:39.984Z,1.30
2024-04-15T10:32:08.809Z,1.48
2024-04-15T10:34:45.511Z,1.00
2024-04-15T10:37:16.847Z,1.23
2024-04-15T10:39:49.541Z,1.00
2024-04-15T10:42:16.402Z,1.20
2024-04-15T10:44:43.343Z,1.17
2024-04-15T10:47:10.659Z,1.65
2024-04-15T10:49:37.786Z,1.27
2024-04-15T10:52:06.132Z,1.05
2024-04-15T10:54:33.953Z,1.10
2024-04-15T10:57:01.569Z,0.88
2024-04-15T10:59:30.303Z,0.80
2024-04-15T11:01:57.227Z,1.33
2024-04-15T11:04:28.329Z,1.20
2024-04-15T11:06:55.919Z,1.50
2024-04-15T11:09:23.921Z,1.55
2024-04-15T11:11:51.652Z,1.33
2024-04-15T11:14:21.680Z,0.75
2024-04-15T11:16:49.180Z,1.20
2024-04-15T11:19:19.818Z,1.10
2024-04-15T11:21:47.531Z,0.90
2024-04-15T11:24:15.269Z,1.33
2024-04-15T11:26:46.241Z,1.15
2024-04-15T11:29:17.617Z,1.10
2024-04-15T11:31:48.843Z,1.30
2024-04-15T11:34:18.425Z,1.02
2024-04-15T11:36:46.220Z,1.13
2024-04-15T11:39:14.731Z,1.08
2024-04-15T11:41:42.291Z,1.25
2024-04-15T11:44:10.406Z,1.20
2024-04-15T11:46:43.542Z,1.27
2024-04-15T11:49:10.485Z,0.98
2024-04-15T11:51:37.411Z,1.38
2024-04-15T11:54:04.329Z,1.10
2024-04-15T11:56:32.125Z,1.60
2024-04-15T11:58:59.391Z,1.20
2024-04-15T12:01:29.444Z,0.98
2024-04-15T12:03:58.925Z,1.27
2024-04-15T12:06:26.250Z,0.85
2024-04-15T12:08:53.198Z,1.48
2024-04-15T12:11:23.281Z,1.10
2024-04-15T12:13:50.274Z,1.33
2024-04-15T12:16:19.323Z,0.88
2024-04-15T12:21:14.181Z,1.00
2024-04-15T12:23:42.377Z,0.75
2024-04-15T12:26:09.336Z,0.93
2024-04-15T12:28:36.905Z,1.10
2024-04-15T12:31:04.528Z,0.65
2024-04-15T12:33:34.331Z,1.08
2024-04-15T12:36:02.128Z,1.30
2024-04-15T12:38:28.915Z,0.90
2024-04-15T12:40:57.133Z,2.08
2024-04-15T12:43:24.429Z,1.20
2024-04-15T12:45:52.840Z,1.10
2024-04-15T12:48:20.309Z,1.20
2024-04-15T12:50:53.568Z,0.80
2024-04-15T12:53:20.307Z,1.30
2024-04-15T12:55:47.767Z,1.17
2024-04-15T12:58:14.695Z,1.05
2024-04-15T13:00:47.085Z,1.30
2024-04-15T13:03:16.676Z,0.85
2024-04-15T13:05:43.614Z,1.30
2024-04-15T13:08:11.810Z,0.45
2024-04-15T13:10:38.727Z,1.10
2024-04-15T13:13:06.699Z,0.57
2024-04-15T13:15:35.982Z,1.08
2024-04-15T13:18:05.400Z,0.82
2024-04-15T13:20:33.124Z,1.10
2024-04-15T13:23:04.441Z,0.90
2024-04-15T13:25:35.094Z,0.98
2024-04-15T13:28:03.752Z,1.30
2024-04-15T13:30:32.687Z,1.25
2024-04-15T13:33:03.015Z,1.17
2024-04-15T13:35:31.080Z,1.48
2024-04-15T13:38:01.268Z,0.95
2024-04-15T13:40:28.575Z,1.40
2024-04-15T13:42:59.827Z,0.93
2024-04-15T13:45:26.693Z,1.35
2024-04-15T13:47:54.631Z,1.48
2024-04-15T13:50:23.237Z,0.70
2024-04-15T13:52:50.631Z,0.98
2024-04-15T13:55:18.981Z,0.70
2024-04-15T13:57:46.095Z,0.98
2024-04-15T14:00:14.818Z,0.98
2024-04-15T14:02:42.453Z,1.10
2024-04-15T14:05:13.507Z,0.50
2024-04-15T14:07:45.039Z,1.23
2024-04-15T14:10:13.326Z,0.68
2024-04-15T14:12:42.664Z,0.90
2024-04-15T14:15:09.848Z,0.90
2024-04-15T14:17:37.713Z,0.93
2024-04-15T14:20:06.927Z,1.33
2024-04-15T14:25:06.006Z,0.90
2024-04-15T14:27:34.746Z,1.33
2024-04-15T14:30:05.054Z,0.88
2024-04-15T14:32:32.804Z,1.13
2024-04-15T14:35:02.342Z,1.00
2024-04-15T14:37:34.143Z,0.95
2024-04-15T14:40:11.736Z,1.48
2024-04-15T14:42:43.340Z,1.00
2024-04-15T14:45:12.730Z,0.90
2024-04-15T14:47:49.161Z,1.30
2024-04-15T14:50:21.493Z,0.82
2024-04-15T14:52:53.670Z,1.30
2024-04-15T14:55:21.928Z,0.80
2024-04-15T14:58:01.664Z,0.80
2024-04-15T15:00:29.012Z,1.02
2024-04-15T15:02:56.302Z,1.35
2024-04-15T15:05:23.086Z,1.10
2024-04-15T15:07:52.733Z,1.17
2024-04-15T15:10:22.372Z,0.70
2024-04-15T15:12:55.866Z,0.90
2024-04-15T15:15:26.172Z,0.90
2024-04-15T15:17:56.108Z,1.05
2024-04-15T15:20:24.388Z,1.23
2024-04-15T15:22:51.944Z,1.15
2024-04-15T15:25:20.091Z,1.05
2024-04-15T15:27:49.739Z,0.85
2024-04-15T15:30:22.685Z,0.90
2024-04-15T15:32:50.481Z,1.15
2024-04-15T15:35:17.406Z,2.03
2024-04-15T15:37:46.084Z,1.10
2024-04-15T15:40:15.844Z,1.23
2024-04-15T15:42:48.177Z,1.55
2024-04-15T15:45:17.277Z,1.42
2024-04-15T15:47:44.908Z,1.60
2024-04-15T15:50:14.569Z,2.40
2024-04-15T15:52:43.566Z,1.00
2024-04-15T15:57:39.424Z,1.85
2024-04-15T16:00:09.073Z,0.65
2024-04-15T16:02:48.525Z,0.82
2024-04-15T16:05:19.023Z,0.90
2024-04-15T16:07:47.445Z,1.63
2024-04-15T16:10:18.739Z,0.90
2024-04-15T16:12:50.541Z,1.08
2024-04-15T16:15:20.865Z,1.08
2024-04-15T16:17:48.272Z,1.05
2024-04-15T16:20:15.222Z,0.88
2024-04-15T16:22:45.960Z,1.20
2024-04-15T16:25:14.189Z,1.08
2024-04-15T16:27:41.349Z,0.98
2024-04-15T16:30:09.075Z,1.48
2024-04-15T16:32:43.381Z,1.17
2024-04-15T16:35:17.611Z,1.10
2024-04-15T16:37:45.826Z,1.10
2024-04-15T16:40:16.898Z,0.85
2024-04-15T16:42:45.924Z,0.70
2024-04-15T16:45:15.191Z,0.50
2024-04-15T16:47:47.458Z,0.50
2024-04-15T16:50:18.898Z,0.80
2024-04-15T16:52:47.300Z,1.10
2024-04-15T16:55:15.648Z,0.80
2024-04-15T16:57:43.987Z,0.50
2024-04-15T17:00:11.797Z,1.10
2024-04-15T17:02:42.516Z,0.82
2024-04-15T17:05:09.688Z,0.98
2024-04-15T17:07:41.989Z,0.77
2024-04-15T17:10:12.983Z,0.85
2024-04-15T17:12:45.214Z,0.80
2024-04-15T17:15:13.423Z,0.75
2024-04-15T17:17:42.801Z,0.15
2024-04-15T17:20:12.197Z,1.00
2024-04-15T17:22:42.505Z,1.08
2024-04-15T17:25:09.612Z,0.90
2024-04-15T17:27:42.781Z,0.40
2024-04-15T17:30:14.992Z,0.65
2024-04-15T17:32:42.363Z,0.30
2024-04-15T17:35:12.104Z,0.80
2024-04-15T17:37:43.948Z,0.52
2024-04-15T17:40:13.933Z,0.28
2024-04-15T17:42:41.260Z,0.70
2024-04-15T17:45:08.313Z,0.80
2024-04-15T17:47:36.577Z,0.82
2024-04-15T17:50:17.091Z,0.73
2024-04-15T17:52:50.158Z,0.80
2024-04-15T17:55:20.916Z,0.32
2024-04-15T17:57:50.741Z,0.35
2024-04-15T18:00:22.523Z,0.63
2024-04-15T18:02:51.852Z,0.57
2024-04-15T18:05:21.644Z,0.80
2024-04-15T18:07:50.711Z,0.63
2024-04-15T18:10:26.527Z,0.43
2024-04-15T18:18:21.585Z,0.57
2024-04-15T18:20:50.741Z,0.30
2024-04-15T18:23:17.661Z,1.20
2024-04-15T18:25:45.726Z,0.93
2024-04-15T18:28:13.873Z,0.40
2024-04-15T18:30:40.881Z,0.20
2024-04-15T18:33:08.521Z,1.00
2024-04-15T18:35:41.592Z,0.35
2024-04-15T18:38:16.032Z,0.80
2024-04-15T18:40:45.606Z,0.40
2024-04-15T18:43:12.802Z,0.70
2024-04-15T18:45:42.281Z,0.70
2024-04-15T18:55:58.649Z,0.50
2024-04-15T18:58:33.215Z,0.32
2024-04-15T19:01:06.360Z,0.35
2024-04-15T19:03:34.802Z,0.70
2024-04-15T19:06:02.554Z,0.40
2024-04-15T19:08:29.529Z,0.70
2024-04-15T19:10:56.467Z,0.60
2024-04-15T19:13:25.055Z,0.90
2024-04-15T19:15:52.789Z,0.70
2024-04-15T19:18:20.187Z,0.60
2024-04-15T19:20:47.213Z,0.88
2024-04-15T19:23:14.171Z,1.05
2024-04-15T19:25:41.109Z,0.50
2024-04-15T19:28:08.720Z,0.52
2024-04-15T19:30:37.752Z,0.38
2024-04-15T19:33:06.592Z,0.32
2024-04-15T19:35:33.930Z,0.57
2024-04-15T19:38:05.442Z,0.40
2024-04-15T19:40:32.637Z,0.68
2024-04-15T19:45:51.488Z,0.50
2024-04-15T19:48:20.010Z,0.40
2024-04-15T19:50:56.302Z,0.38
2024-04-15T19:53:36.892Z,0.70
2024-04-15T20:01:31.630Z,0.70
2024-04-15T20:03:58.770Z,0.80
2024-04-15T20:06:25.674Z,0.55
2024-04-15T20:08:54.508Z,0.50
2024-04-15T20:11:22.207Z,0.52
2024-04-15T20:13:50.102Z,0.40
2024-04-15T20:16:19.240Z,0.50
2024-04-15T20:19:02.826Z,0.70
2024-04-15T20:21:30.504Z,0.70
2024-04-15T20:23:58.367Z,0.45
2024-04-15T20:26:25.636Z,0.77
2024-04-15T20:29:04.681Z,0.30
2024-04-15T20:31:31.686Z,0.40
2024-04-15T20:34:00.079Z,0.38
2024-04-15T20:36:29.219Z,0.20
2024-04-15T20:38:56.352Z,0.20
2024-04-15T20:41:23.556Z,0.98
2024-04-15T20:43:50.906Z,0.30
2024-04-15T20:46:18.494Z,0.35
2024-04-15T20:48:45.541Z,0.30
2024-04-15T20:51:12.795Z,0.20
2024-04-15T20:53:42.767Z,0.20
2024-04-15T20:56:09.869Z,2.40
2024-04-15T20:58:36.752Z,0.10
2024-04-15T21:01:05.271Z,0.88
2024-04-15T21:03:33.317Z,0.08
2024-04-15T21:06:00.271Z,0.00
2024-04-15T21:08:28.586Z,0.10
2024-04-15T21:10:55.690Z,0.28
2024-04-15T21:13:22.917Z,0.10
2024-04-15T21:15:49.936Z,0.00
2024-04-15T21:18:16.851Z,0.00
2024-04-15T21:26:17.239Z,0.00
2024-04-15T21:34:17.022Z,0.08
2024-04-15T21:36:50.499Z,0.22
2024-04-15T21:39:17.410Z,0.03
2024-04-15T21:41:44.246Z,0.00
2024-04-15T21:44:11.396Z,0.25
2024-04-15T21:46:38.341Z,0.20
2024-04-15T21:49:08.278Z,0.20
2024-04-15T21:51:35.221Z,0.10
2024-04-15T21:54:02.087Z,0.20
2024-04-15T21:56:30.255Z,0.10
2024-04-15T21:58:58.803Z,0.20
2024-04-15T22:01:25.661Z,0.10
2024-04-15T22:03:52.749Z,0.13
2024-04-15T22:06:20.122Z,0.00
2024-04-15T22:08:46.977Z,0.10
2024-04-15T22:11:14.006Z,0.20
2024-04-15T22:13:40.910Z,0.10
2024-04-15T22:16:10.648Z,0.10
2024-04-15T22:18:37.549Z,0.10
2024-04-15T22:21:04.567Z,0.00
2024-04-15T22:23:31.419Z,0.00
2024-04-15T22:25:59.038Z,0.10
2024-04-15T22:28:26.397Z,0.10
2024-04-15T22:30:53.231Z,0.00
2024-04-15T22:33:24.769Z,0.17
2024-04-15T22:35:55.458Z,0.10
2024-04-15T22:38:26.427Z,0.20
2024-04-15T22:40:56.152Z,0.00
2024-04-15T22:43:22.962Z,0.00
2024-04-15T22:45:49.842Z,0.10
2024-04-15T22:48:18.869Z,0.25
2024-04-15T22:50:45.717Z,0.30
2024-04-15T22:53:12.848Z,0.90
2024-04-15T22:55:40.348Z,0.20
2024-04-15T22:58:07.102Z,0.20
2024-04-15T23:00:33.867Z,0.22
2024-04-15T23:03:01.426Z,0.40
2024-04-15T23:05:28.287Z,0.17
2024-04-15T23:07:55.044Z,0.20
2024-04-15T23:10:22.445Z,0.30
2024-04-15T23:12:49.293Z,0.10
2024-04-15T23:15:16.183Z,0.28
2024-04-15T23:17:43.166Z,0.30
2024-04-15T23:20:10.377Z,0.20
2024-04-15T23:22:37.137Z,0.10
2024-04-15T23:25:04.359Z,0.30
2024-04-15T23:27:31.321Z,0.22
2024-04-15T23:29:58.040Z,0.20
2024-04-15T23:32:24.813Z,0.20
2024-04-15T23:34:51.745Z,0.13
2024-04-15T23:37:18.664Z,0.10
2024-04-15T23:39:45.539Z,0.28
2024-04-15T23:42:12.366Z,0.40
2024-04-15T23:44:39.122Z,0.30
2024-04-15T23:47:05.983Z,0.30
2024-04-15T23:49:33.589Z,0.47
2024-04-15T23:52:00.540Z,0.57
2024-04-15T23:54:27.443Z,0.43
2024-04-15T23:56:54.300Z,0.43
2024-04-15T23:59:22.610Z,0.43
